Harlow, North Dakota
Current Conditions -  °F | °C
As of 5:35 PM on Saturday 22 Nov 2014 (Local Time) from K9D7 Reporting Station
Overcast Overcast  
Wind Chill: 31°   Ceiling: 10000
Heat Index: 37°   Visibility: 10mi
Dew Point: 28°   Wind: 9mph
Humidity: 70%   Direction: 130°SE
Pressure: 29.35"   Gusts: NA
Location:  48.2518°N, 99.4309°W
Report Text: K9D7 222335Z AUTO 13008KT 10SM OVC100 03/M02 A2935 RMK AO2
Loading
Personal Weather Stations






























Interactive Weather Map New forecast layout! Learn more

10-Day Weather Forecast

Advertisements
Track Severe Weather on mobile